PRIVATE WETTERSTATION BILLIGHEIM-ALLFELD                       ZURCK
Wetterdaten: Freitag, 19.08.2016
Datum Zeit Temp. A. Temp. A. min Temp. A. max Feuchte A. Luftdruck Regen Wind Richtung Richtung Sonnenschein ET Solar Taupunkt Windchill Windben Empfang
19.08.2016 00:00 16,6 C 16,6 C 16,8 C 89 % 1009,9 hPa 0,0 l/m 0,0 km/h (0 Bft) N 0 0 min 0,000 mm 0 W/m 14,8 C 16,6 C 0,0 km/h (0 Bft) 100 %
19.08.2016 00:10 16,6 C 16,6 C 16,6 C 89 % 1009,9 hPa 0,0 l/m 0,0 km/h (0 Bft) SO 135 0 min 0,000 mm 0 W/m 14,8 C 16,6 C 1,6 km/h (1 Bft) 100 %
19.08.2016 00:20 16,7 C 16,6 C 16,7 C 89 % 1009,9 hPa 0,0 l/m 0,0 km/h (0 Bft) SO 135 0 min 0,000 mm 0 W/m 14,9 C 16,7 C 1,6 km/h (1 Bft) 100 %
19.08.2016 00:30 16,7 C 16,7 C 16,8 C 89 % 1009,9 hPa 0,0 l/m 0,0 km/h (0 Bft) N 0 0 min 0,000 mm 0 W/m 14,9 C 16,7 C 0,0 km/h (0 Bft) 100 %
19.08.2016 00:40 16,6 C 16,6 C 16,7 C 89 % 1009,8 hPa 0,0 l/m 0,0 km/h (0 Bft) SO 135 0 min 0,000 mm 0 W/m 14,8 C 16,6 C 1,6 km/h (1 Bft) 89 %
19.08.2016 00:50 16,6 C 16,6 C 16,7 C 89 % 1009,8 hPa 0,0 l/m 0,0 km/h (0 Bft) N 0 0 min 0,000 mm 0 W/m 14,8 C 16,6 C 0,0 km/h (0 Bft) 100 %
19.08.2016 01:00 16,5 C 16,5 C 16,7 C 89 % 1009,8 hPa 0,0 l/m 0,0 km/h (0 Bft) N 0 0 min 0,000 mm 0 W/m 14,7 C 16,5 C 0,0 km/h (0 Bft) 100 %
19.08.2016 01:10 16,3 C 16,3 C 16,5 C 89 % 1009,8 hPa 0,0 l/m 0,0 km/h (0 Bft) SO 135 0 min 0,000 mm 0 W/m 14,5 C 16,3 C 1,6 km/h (1 Bft) 100 %
19.08.2016 01:20 16,3 C 16,3 C 16,3 C 89 % 1009,7 hPa 0,0 l/m 0,0 km/h (0 Bft) SO 135 0 min 0,000 mm 0 W/m 14,5 C 16,3 C 1,6 km/h (1 Bft) 100 %
19.08.2016 01:30 16,3 C 16,3 C 16,3 C 89 % 1009,8 hPa 0,0 l/m 0,0 km/h (0 Bft) S-SO 157 0 min 0,000 mm 0 W/m 14,5 C 16,3 C 1,6 km/h (1 Bft) 100 %
19.08.2016 01:40 16,3 C 16,3 C 16,3 C 89 % 1009,8 hPa 0,0 l/m 0,0 km/h (0 Bft) N 0 0 min 0,000 mm 0 W/m 14,5 C 16,3 C 0,0 km/h (0 Bft) 100 %
19.08.2016 01:50 16,2 C 16,2 C 16,3 C 89 % 1009,9 hPa 0,0 l/m 0,0 km/h (0 Bft) S-SO 157 0 min 0,000 mm 0 W/m 14,4 C 16,2 C 1,6 km/h (1 Bft) 100 %
19.08.2016 02:00 16,2 C 16,2 C 16,2 C 89 % 1009,7 hPa 0,0 l/m 0,0 km/h (0 Bft) S-SO 157 0 min 0,000 mm 0 W/m 14,4 C 16,2 C 1,6 km/h (1 Bft) 100 %
19.08.2016 02:10 16,2 C 16,2 C 16,2 C 89 % 1009,6 hPa 0,0 l/m 0,0 km/h (0 Bft) N 0 0 min 0,000 mm 0 W/m 14,4 C 16,2 C 0,0 km/h (0 Bft) 100 %
19.08.2016 02:20 16,1 C 16,1 C 16,2 C 90 % 1009,6 hPa 0,0 l/m 0,0 km/h (0 Bft) N 0 0 min 0,000 mm 0 W/m 14,5 C 16,1 C 0,0 km/h (0 Bft) 100 %
19.08.2016 02:30 16,0 C 16,0 C 16,1 C 90 % 1009,6 hPa 0,0 l/m 0,0 km/h (0 Bft) N 0 0 min 0,000 mm 0 W/m 14,4 C 16,0 C 0,0 km/h (0 Bft) 100 %
19.08.2016 02:40 15,8 C 15,8 C 16,0 C 89 % 1009,5 hPa 0,0 l/m 0,0 km/h (0 Bft) N 0 0 min 0,000 mm 0 W/m 14,0 C 15,8 C 0,0 km/h (0 Bft) 100 %
19.08.2016 02:50 15,7 C 15,7 C 15,8 C 90 % 1009,6 hPa 0,0 l/m 0,0 km/h (0 Bft) N 0 0 min 0,000 mm 0 W/m 14,1 C 15,7 C 0,0 km/h (0 Bft) 100 %
19.08.2016 03:00 15,6 C 15,6 C 15,7 C 90 % 1009,6 hPa 0,0 l/m 0,0 km/h (0 Bft) S-SO 157 0 min 0,000 mm 0 W/m 14,0 C 15,6 C 1,6 km/h (1 Bft) 100 %
19.08.2016 03:10 15,6 C 15,6 C 15,6 C 90 % 1009,5 hPa 0,0 l/m 0,0 km/h (0 Bft) N 0 0 min 0,000 mm 0 W/m 14,0 C 15,6 C 0,0 km/h (0 Bft) 100 %
19.08.2016 03:20 15,6 C 15,6 C 15,6 C 90 % 1009,5 hPa 0,0 l/m 0,0 km/h (0 Bft) N 0 0 min 0,000 mm 0 W/m 14,0 C 15,6 C 0,0 km/h (0 Bft) 100 %
19.08.2016 03:30 15,6 C 15,6 C 15,6 C 90 % 1009,5 hPa 0,0 l/m 0,0 km/h (0 Bft) N 0 0 min 0,000 mm 0 W/m 14,0 C 15,6 C 0,0 km/h (0 Bft) 100 %
19.08.2016 03:40 15,6 C 15,6 C 15,6 C 90 % 1009,5 hPa 0,0 l/m 0,0 km/h (0 Bft) N 0 0 min 0,000 mm 0 W/m 14,0 C 15,6 C 0,0 km/h (0 Bft) 100 %
19.08.2016 03:50 15,5 C 15,5 C 15,6 C 90 % 1009,6 hPa 0,0 l/m 0,0 km/h (0 Bft) N 0 0 min 0,000 mm 0 W/m 13,9 C 15,5 C 0,0 km/h (0 Bft) 100 %
19.08.2016 04:00 15,5 C 15,5 C 15,5 C 90 % 1009,5 hPa 0,0 l/m 0,0 km/h (0 Bft) N 0 0 min 0,000 mm 0 W/m 13,9 C 15,5 C 0,0 km/h (0 Bft) 100 %
19.08.2016 04:10 15,4 C 15,4 C 15,5 C 90 % 1009,4 hPa 0,0 l/m 0,0 km/h (0 Bft) N 0 0 min 0,000 mm 0 W/m 13,8 C 15,4 C 0,0 km/h (0 Bft) 100 %
19.08.2016 04:20 15,4 C 15,4 C 15,4 C 90 % 1009,4 hPa 0,0 l/m 0,0 km/h (0 Bft) N 0 0 min 0,000 mm 0 W/m 13,8 C 15,4 C 0,0 km/h (0 Bft) 100 %
19.08.2016 04:30 15,3 C 15,3 C 15,4 C 90 % 1009,6 hPa 0,0 l/m 0,0 km/h (0 Bft) N 0 0 min 0,000 mm 0 W/m 13,7 C 15,3 C 0,0 km/h (0 Bft) 100 %
19.08.2016 04:40 15,3 C 15,3 C 15,3 C 90 % 1009,5 hPa 0,0 l/m 0,0 km/h (0 Bft) N 0 0 min 0,000 mm 0 W/m 13,7 C 15,3 C 0,0 km/h (0 Bft) 100 %
19.08.2016 04:50 15,1 C 15,1 C 15,3 C 90 % 1009,6 hPa 0,0 l/m 0,0 km/h (0 Bft) N 0 0 min 0,000 mm 0 W/m 13,5 C 15,1 C 0,0 km/h (0 Bft) 100 %
19.08.2016 05:00 15,1 C 15,1 C 15,1 C 90 % 1009,6 hPa 0,0 l/m 0,0 km/h (0 Bft) N 0 0 min 0,000 mm 0 W/m 13,5 C 15,1 C 0,0 km/h (0 Bft) 100 %
19.08.2016 05:10 15,2 C 15,1 C 15,2 C 90 % 1009,6 hPa 0,0 l/m 0,0 km/h (0 Bft) N 0 0 min 0,000 mm 0 W/m 13,6 C 15,2 C 0,0 km/h (0 Bft) 100 %
19.08.2016 05:20 15,1 C 15,1 C 15,2 C 90 % 1009,6 hPa 0,0 l/m 0,0 km/h (0 Bft) N 0 0 min 0,000 mm 0 W/m 13,5 C 15,1 C 0,0 km/h (0 Bft) 100 %
19.08.2016 05:30 15,2 C 15,1 C 15,2 C 90 % 1009,7 hPa 0,0 l/m 0,0 km/h (0 Bft) S 180 0 min 0,000 mm 0 W/m 13,6 C 15,2 C 1,6 km/h (1 Bft) 100 %
19.08.2016 05:40 15,3 C 15,1 C 15,3 C 90 % 1009,8 hPa 0,0 l/m 0,0 km/h (0 Bft) N 0 0 min 0,000 mm 0 W/m 13,7 C 15,3 C 0,0 km/h (0 Bft) 100 %
19.08.2016 05:50 15,5 C 15,2 C 15,5 C 90 % 1009,9 hPa 0,0 l/m 0,0 km/h (0 Bft) S-SO 157 0 min 0,000 mm 0 W/m 13,9 C 15,5 C 1,6 km/h (1 Bft) 100 %
19.08.2016 06:00 15,7 C 15,5 C 15,7 C 90 % 1009,9 hPa 0,0 l/m 0,0 km/h (0 Bft) S-SO 157 0 min 0,000 mm 0 W/m 14,1 C 15,7 C 4,8 km/h (1 Bft) 89 %
19.08.2016 06:10 15,7 C 15,7 C 15,8 C 91 % 1010,0 hPa 0,0 l/m 0,0 km/h (0 Bft) S-SO 157 0 min 0,000 mm 0 W/m 14,2 C 15,7 C 1,6 km/h (1 Bft) 100 %
19.08.2016 06:20 15,8 C 15,8 C 15,8 C 91 % 1010,0 hPa 0,0 l/m 0,0 km/h (0 Bft) N 0 0 min 0,000 mm 0 W/m 14,3 C 15,8 C 0,0 km/h (0 Bft) 100 %
19.08.2016 06:30 15,9 C 15,8 C 15,9 C 90 % 1010,1 hPa 0,0 l/m 0,0 km/h (0 Bft) S-SO 157 0 min 0,000 mm 0 W/m 14,3 C 15,9 C 1,6 km/h (1 Bft) 100 %
19.08.2016 06:40 15,9 C 15,9 C 15,9 C 90 % 1010,1 hPa 0,0 l/m 0,0 km/h (0 Bft) N 0 0 min 0,000 mm 5 W/m 14,3 C 15,9 C 0,0 km/h (0 Bft) 100 %
19.08.2016 06:50 16,0 C 15,9 C 16,0 C 90 % 1010,1 hPa 0,0 l/m 1,6 km/h (1 Bft) S-SW 202 0 min 0,000 mm 7 W/m 14,4 C 16,0 C 14,5 km/h (3 Bft) 100 %
19.08.2016 07:00 16,0 C 16,0 C 16,1 C 90 % 1010,1 hPa 0,0 l/m 1,6 km/h (1 Bft) W-SW 247 0 min 0,000 mm 11 W/m 14,4 C 16,0 C 11,3 km/h (2 Bft) 100 %
19.08.2016 07:10 16,0 C 16,0 C 16,0 C 90 % 1010,2 hPa 0,0 l/m 0,0 km/h (0 Bft) W-SW 247 0 min 0,000 mm 16 W/m 14,4 C 16,0 C 3,2 km/h (1 Bft) 100 %
19.08.2016 07:20 16,1 C 16,0 C 16,1 C 90 % 1010,3 hPa 0,0 l/m 1,6 km/h (1 Bft) W-SW 247 0 min 0,000 mm 19 W/m 14,5 C 16,1 C 4,8 km/h (1 Bft) 100 %
19.08.2016 07:30 16,1 C 16,1 C 16,1 C 91 % 1010,3 hPa 0,0 l/m 0,0 km/h (0 Bft) W-SW 247 0 min 0,000 mm 25 W/m 14,6 C 16,1 C 1,6 km/h (1 Bft) 100 %
19.08.2016 07:40 16,1 C 16,1 C 16,1 C 91 % 1010,3 hPa 0,0 l/m 0,0 km/h (0 Bft) SW 225 0 min 0,000 mm 35 W/m 14,6 C 16,1 C 4,8 km/h (1 Bft) 100 %
19.08.2016 07:50 16,2 C 16,1 C 16,2 C 91 % 1010,5 hPa 0,0 l/m 0,0 km/h (0 Bft) S-SW 202 0 min 0,000 mm 39 W/m 14,7 C 16,2 C 1,6 km/h (1 Bft) 100 %
19.08.2016 08:00 16,2 C 16,2 C 16,2 C 91 % 1010,5 hPa 0,0 l/m 1,6 km/h (1 Bft) SW 225 0 min 0,025 mm 40 W/m 14,7 C 16,2 C 6,4 km/h (2 Bft) 100 %
19.08.2016 08:10 16,4 C 16,2 C 16,4 C 90 % 1010,5 hPa 0,0 l/m 0,0 km/h (0 Bft) SW 225 0 min 0,000 mm 60 W/m 14,8 C 16,4 C 6,4 km/h (2 Bft) 100 %
19.08.2016 08:20 16,5 C 16,4 C 16,5 C 91 % 1010,4 hPa 0,0 l/m 0,0 km/h (0 Bft) SW 225 0 min 0,000 mm 102 W/m 15,0 C 16,5 C 3,2 km/h (1 Bft) 100 %
19.08.2016 08:30 16,7 C 16,5 C 16,7 C 90 % 1010,4 hPa 0,0 l/m 0,0 km/h (0 Bft) SW 225 0 min 0,000 mm 107 W/m 15,0 C 16,7 C 1,6 km/h (1 Bft) 100 %
19.08.2016 08:40 16,9 C 16,7 C 16,9 C 90 % 1010,5 hPa 0,0 l/m 0,0 km/h (0 Bft) SW 225 0 min 0,000 mm 113 W/m 15,2 C 16,9 C 1,6 km/h (1 Bft) 100 %
19.08.2016 08:50 17,0 C 16,9 C 17,0 C 90 % 1010,6 hPa 0,0 l/m 0,0 km/h (0 Bft) SW 225 0 min 0,000 mm 123 W/m 15,3 C 17,0 C 1,6 km/h (1 Bft) 100 %
19.08.2016 09:00 17,1 C 17,0 C 17,1 C 90 % 1010,7 hPa 0,0 l/m 3,2 km/h (1 Bft) SW 225 0 min 0,051 mm 123 W/m 15,4 C 17,1 C 11,3 km/h (2 Bft) 100 %
19.08.2016 09:10 17,3 C 17,1 C 17,3 C 90 % 1010,7 hPa 0,0 l/m 3,2 km/h (1 Bft) S-SW 202 0 min 0,000 mm 128 W/m 15,6 C 17,3 C 9,7 km/h (2 Bft) 100 %
19.08.2016 09:20 17,6 C 17,3 C 17,6 C 89 % 1010,7 hPa 0,0 l/m 3,2 km/h (1 Bft) SW 225 0 min 0,000 mm 141 W/m 15,8 C 17,6 C 9,7 km/h (2 Bft) 100 %
19.08.2016 09:30 17,7 C 17,6 C 17,7 C 89 % 1010,7 hPa 0,0 l/m 4,8 km/h (1 Bft) SW 225 0 min 0,000 mm 149 W/m 15,9 C 17,7 C 14,5 km/h (3 Bft) 100 %
19.08.2016 09:40 17,7 C 17,7 C 17,7 C 89 % 1010,7 hPa 0,0 l/m 4,8 km/h (1 Bft) S-SW 202 10 min 0,000 mm 162 W/m 15,9 C 17,7 C 12,9 km/h (3 Bft) 100 %
19.08.2016 09:50 17,8 C 17,7 C 17,8 C 88 % 1010,7 hPa 0,0 l/m 6,4 km/h (2 Bft) SW 225 10 min 0,000 mm 202 W/m 15,8 C 17,8 C 16,1 km/h (3 Bft) 100 %
19.08.2016 10:00 18,0 C 17,8 C 18,0 C 88 % 1010,7 hPa 0,0 l/m 3,2 km/h (1 Bft) S-SW 202 10 min 0,076 mm 262 W/m 16,0 C 18,0 C 9,7 km/h (2 Bft) 100 %
19.08.2016 10:10 18,3 C 18,0 C 18,3 C 88 % 1010,7 hPa 0,0 l/m 4,8 km/h (1 Bft) S-SW 202 10 min 0,000 mm 239 W/m 16,3 C 18,3 C 14,5 km/h (3 Bft) 100 %
19.08.2016 10:20 18,4 C 18,3 C 18,4 C 88 % 1010,8 hPa 0,0 l/m 4,8 km/h (1 Bft) W-SW 247 10 min 0,000 mm 171 W/m 16,4 C 18,4 C 14,5 km/h (3 Bft) 100 %
19.08.2016 10:30 18,5 C 18,4 C 18,5 C 87 % 1010,9 hPa 0,0 l/m 0,0 km/h (0 Bft) SW 225 10 min 0,000 mm 192 W/m 16,3 C 18,5 C 6,4 km/h (2 Bft) 100 %
19.08.2016 10:40 18,8 C 18,5 C 18,8 C 87 % 1010,8 hPa 0,0 l/m 1,6 km/h (1 Bft) SW 225 10 min 0,000 mm 223 W/m 16,6 C 18,8 C 9,7 km/h (2 Bft) 100 %
19.08.2016 10:50 19,0 C 18,8 C 19,0 C 86 % 1010,8 hPa 0,0 l/m 0,0 km/h (0 Bft) S-SO 157 10 min 0,000 mm 253 W/m 16,6 C 19,0 C 1,6 km/h (1 Bft) 100 %
19.08.2016 11:00 19,0 C 18,9 C 19,0 C 86 % 1010,8 hPa 0,0 l/m 0,0 km/h (0 Bft) S-SW 202 10 min 0,102 mm 236 W/m 16,6 C 19,0 C 1,6 km/h (1 Bft) 100 %
19.08.2016 11:10 19,4 C 19,0 C 19,4 C 86 % 1010,8 hPa 0,0 l/m 1,6 km/h (1 Bft) W-SW 247 10 min 0,000 mm 369 W/m 17,0 C 19,4 C 9,7 km/h (2 Bft) 100 %
19.08.2016 11:20 19,8 C 19,4 C 19,8 C 84 % 1010,9 hPa 0,0 l/m 1,6 km/h (1 Bft) W-SW 247 10 min 0,000 mm 309 W/m 17,0 C 19,8 C 8,0 km/h (2 Bft) 100 %
19.08.2016 11:30 20,8 C 19,9 C 20,8 C 83 % 1010,9 hPa 0,0 l/m 1,6 km/h (1 Bft) SW 225 10 min 0,000 mm 823 W/m 17,8 C 20,8 C 9,7 km/h (2 Bft) 100 %
19.08.2016 11:40 21,9 C 20,9 C 21,9 C 77 % 1010,8 hPa 0,0 l/m 4,8 km/h (1 Bft) S-SW 202 10 min 0,000 mm 828 W/m 17,7 C 21,9 C 9,7 km/h (2 Bft) 100 %
19.08.2016 11:50 22,1 C 21,9 C 22,1 C 77 % 1010,8 hPa 0,0 l/m 3,2 km/h (1 Bft) SO 135 10 min 0,000 mm 796 W/m 17,9 C 22,1 C 11,3 km/h (2 Bft) 100 %
19.08.2016 12:00 22,5 C 22,1 C 22,6 C 72 % 1010,7 hPa 0,0 l/m 0,0 km/h (0 Bft) S-SW 202 10 min 0,356 mm 779 W/m 17,2 C 22,5 C 6,4 km/h (2 Bft) 100 %
19.08.2016 12:10 22,5 C 22,5 C 22,6 C 73 % 1010,8 hPa 0,0 l/m 1,6 km/h (1 Bft) S-SO 157 10 min 0,000 mm 823 W/m 17,4 C 22,5 C 8,0 km/h (2 Bft) 100 %
19.08.2016 12:20 22,9 C 22,5 C 22,9 C 72 % 1010,7 hPa 0,0 l/m 0,0 km/h (0 Bft) S-SW 202 10 min 0,000 mm 854 W/m 17,6 C 22,9 C 6,4 km/h (2 Bft) 100 %
19.08.2016 12:30 23,3 C 22,9 C 23,3 C 70 % 1010,7 hPa 0,0 l/m 3,2 km/h (1 Bft) SO 135 10 min 0,000 mm 882 W/m 17,5 C 23,3 C 11,3 km/h (2 Bft) 100 %
19.08.2016 12:40 23,9 C 23,3 C 23,9 C 68 % 1010,7 hPa 0,0 l/m 1,6 km/h (1 Bft) W-SW 247 10 min 0,000 mm 893 W/m 17,6 C 23,9 C 11,3 km/h (2 Bft) 100 %
19.08.2016 12:50 23,8 C 23,8 C 24,1 C 65 % 1010,6 hPa 0,0 l/m 0,0 km/h (0 Bft) W-SW 247 10 min 0,000 mm 831 W/m 16,8 C 23,8 C 8,0 km/h (2 Bft) 100 %
19.08.2016 13:00 23,7 C 23,7 C 23,8 C 64 % 1010,4 hPa 0,0 l/m 1,6 km/h (1 Bft) SW 225 10 min 0,381 mm 891 W/m 16,5 C 23,7 C 12,9 km/h (3 Bft) 100 %
19.08.2016 13:10 23,7 C 23,6 C 23,8 C 63 % 1010,3 hPa 0,0 l/m 3,2 km/h (1 Bft) W-SW 247 10 min 0,000 mm 888 W/m 16,2 C 23,7 C 11,3 km/h (2 Bft) 100 %
19.08.2016 13:20 23,6 C 23,6 C 23,7 C 66 % 1010,2 hPa 0,0 l/m 0,0 km/h (0 Bft) W-SW 247 10 min 0,000 mm 281 W/m 16,9 C 23,6 C 4,8 km/h (1 Bft) 100 %
19.08.2016 13:30 23,8 C 23,6 C 23,8 C 65 % 1010,3 hPa 0,0 l/m 3,2 km/h (1 Bft) W-SW 247 10 min 0,000 mm 879 W/m 16,8 C 23,8 C 11,3 km/h (2 Bft) 100 %
19.08.2016 13:40 24,1 C 23,8 C 24,2 C 63 % 1010,3 hPa 0,0 l/m 4,8 km/h (1 Bft) S-SW 202 10 min 0,000 mm 896 W/m 16,6 C 24,1 C 16,1 km/h (3 Bft) 99 %
19.08.2016 13:50 24,0 C 23,9 C 24,1 C 62 % 1010,3 hPa 0,0 l/m 4,8 km/h (1 Bft) S-SW 202 10 min 0,000 mm 902 W/m 16,3 C 24,0 C 11,3 km/h (2 Bft) 100 %
19.08.2016 14:00 24,4 C 24,0 C 24,4 C 62 % 1010,2 hPa 0,0 l/m 8,0 km/h (2 Bft) S-SO 157 10 min 0,356 mm 926 W/m 16,6 C 24,0 C 20,9 km/h (4 Bft) 100 %
19.08.2016 14:10 24,2 C 24,2 C 24,4 C 62 % 1010,1 hPa 0,0 l/m 3,2 km/h (1 Bft) S-SO 157 10 min 0,000 mm 939 W/m 16,4 C 24,2 C 11,3 km/h (2 Bft) 100 %
19.08.2016 14:20 24,2 C 24,2 C 24,2 C 60 % 1010,1 hPa 0,0 l/m 1,6 km/h (1 Bft) S-SW 202 10 min 0,000 mm 253 W/m 15,9 C 24,2 C 12,9 km/h (3 Bft) 100 %
19.08.2016 14:30 24,2 C 24,1 C 24,2 C 62 % 1010,1 hPa 0,0 l/m 0,0 km/h (0 Bft) S-SW 202 10 min 0,000 mm 800 W/m 16,4 C 24,2 C 1,6 km/h (1 Bft) 90 %
19.08.2016 14:40 24,0 C 24,0 C 24,2 C 61 % 1010,0 hPa 0,0 l/m 1,6 km/h (1 Bft) O-SO 112 10 min 0,000 mm 756 W/m 16,0 C 24,0 C 11,3 km/h (2 Bft) 100 %
19.08.2016 14:50 24,1 C 24,0 C 24,2 C 61 % 1009,9 hPa 0,0 l/m 4,8 km/h (1 Bft) SO 135 10 min 0,000 mm 810 W/m 16,1 C 24,1 C 16,1 km/h (3 Bft) 100 %
19.08.2016 15:00 23,9 C 23,9 C 24,1 C 62 % 1009,8 hPa 0,0 l/m 0,0 km/h (0 Bft) S 180 10 min 0,254 mm 200 W/m 16,2 C 23,9 C 1,6 km/h (1 Bft) 99 %
19.08.2016 15:10 24,2 C 23,8 C 24,2 C 60 % 1009,8 hPa 0,0 l/m 1,6 km/h (1 Bft) O-SO 112 10 min 0,000 mm 824 W/m 15,9 C 24,2 C 17,7 km/h (3 Bft) 100 %
19.08.2016 15:20 24,9 C 24,2 C 24,9 C 57 % 1009,7 hPa 0,0 l/m 1,6 km/h (1 Bft) S-SW 202 10 min 0,000 mm 278 W/m 15,8 C 24,9 C 8,0 km/h (2 Bft) 100 %
19.08.2016 15:30 24,8 C 24,8 C 24,9 C 61 % 1009,6 hPa 0,0 l/m 1,6 km/h (1 Bft) S-SO 157 10 min 0,000 mm 248 W/m 16,8 C 24,8 C 8,0 km/h (2 Bft) 100 %
19.08.2016 15:40 24,3 C 24,3 C 24,8 C 61 % 1009,6 hPa 0,0 l/m 0,0 km/h (0 Bft) SO 135 10 min 0,000 mm 181 W/m 16,3 C 24,3 C 1,6 km/h (1 Bft) 100 %
19.08.2016 15:50 24,2 C 24,2 C 24,3 C 63 % 1009,6 hPa 0,0 l/m 0,0 km/h (0 Bft) SW 225 10 min 0,000 mm 234 W/m 16,7 C 24,2 C 1,6 km/h (1 Bft) 100 %
19.08.2016 16:00 24,3 C 24,2 C 24,3 C 61 % 1009,8 hPa 0,0 l/m 4,8 km/h (1 Bft) SW 225 10 min 0,178 mm 232 W/m 16,3 C 24,3 C 9,7 km/h (2 Bft) 100 %
19.08.2016 16:10 24,3 C 24,2 C 24,3 C 61 % 1009,7 hPa 0,0 l/m 3,2 km/h (1 Bft) W-SW 247 10 min 0,000 mm 265 W/m 16,3 C 24,3 C 8,0 km/h (2 Bft) 100 %
19.08.2016 16:20 24,3 C 24,3 C 24,3 C 59 % 1009,5 hPa 0,0 l/m 1,6 km/h (1 Bft) S 180 10 min 0,000 mm 274 W/m 15,8 C 24,3 C 8,0 km/h (2 Bft) 100 %
19.08.2016 16:30 24,4 C 24,3 C 24,4 C 61 % 1009,6 hPa 0,0 l/m 0,0 km/h (0 Bft) W-SW 247 10 min 0,000 mm 250 W/m 16,4 C 24,4 C 1,6 km/h (1 Bft) 100 %
19.08.2016 16:40 24,4 C 24,4 C 24,5 C 59 % 1009,6 hPa 0,0 l/m 0,0 km/h (0 Bft) W-SW 247 10 min 0,000 mm 258 W/m 15,9 C 24,4 C 1,6 km/h (1 Bft) 100 %
19.08.2016 16:50 24,3 C 24,3 C 24,5 C 59 % 1009,5 hPa 0,0 l/m 0,0 km/h (0 Bft) SO 140 10 min 0,000 mm 230 W/m 15,8 C 24,3 C 1,6 km/h (1 Bft) 99 %
19.08.2016 17:00 24,4 C 24,2 C 24,4 C 61 % 1009,4 hPa 0,0 l/m 0,0 km/h (0 Bft) SW 225 10 min 0,151 mm 234 W/m 16,4 C 24,4 C 1,6 km/h (1 Bft) 98 %
19.08.2016 17:10 24,6 C 24,4 C 24,6 C 63 % 1009,5 hPa 0,0 l/m 0,0 km/h (0 Bft) SW 234 10 min 0,000 mm 202 W/m 17,1 C 24,6 C 1,6 km/h (1 Bft) 98 %
19.08.2016 17:20 24,7 C 24,6 C 24,7 C 61 % 1009,3 hPa 0,0 l/m 0,0 km/h (0 Bft) SW 236 10 min 0,000 mm 221 W/m 16,7 C 24,7 C 1,6 km/h (1 Bft) 98 %
19.08.2016 17:30 24,7 C 24,7 C 24,7 C 58 % 1009,3 hPa 0,0 l/m 0,0 km/h (0 Bft) S-SW 207 10 min 0,000 mm 163 W/m 15,9 C 24,7 C 1,6 km/h (1 Bft) 98 %
19.08.2016 17:40 24,6 C 24,6 C 24,8 C 58 % 1009,3 hPa 0,0 l/m 0,0 km/h (0 Bft) S 183 0 min 0,000 mm 109 W/m 15,8 C 24,6 C 1,6 km/h (1 Bft) 97 %
19.08.2016 17:50 24,4 C 24,4 C 24,6 C 61 % 1009,4 hPa 0,0 l/m 2,2 km/h (1 Bft) W-NW 291 0 min 0,000 mm 120 W/m 16,4 C 24,4 C 6,4 km/h (2 Bft) 98 %
19.08.2016 18:00 24,0 C 24,0 C 24,4 C 62 % 1009,2 hPa 0,0 l/m 1,1 km/h (1 Bft) W-NW 298 0 min 0,127 mm 142 W/m 16,3 C 24,0 C 4,8 km/h (1 Bft) 97 %
19.08.2016 18:10 23,9 C 23,9 C 24,0 C 65 % 1009,3 hPa 0,0 l/m 0,0 km/h (0 Bft) W-NW 299 0 min 0,000 mm 132 W/m 16,9 C 23,9 C 1,6 km/h (1 Bft) 98 %
19.08.2016 18:20 23,8 C 23,8 C 23,9 C 65 % 1009,2 hPa 0,0 l/m 1,2 km/h (1 Bft) NW 309 0 min 0,000 mm 107 W/m 16,8 C 23,8 C 6,4 km/h (2 Bft) 97 %
19.08.2016 18:30 23,6 C 23,6 C 23,8 C 67 % 1009,3 hPa 0,0 l/m 1,8 km/h (1 Bft) NW 309 0 min 0,000 mm 109 W/m 17,1 C 23,6 C 6,4 km/h (2 Bft) 97 %
19.08.2016 18:40 23,3 C 23,3 C 23,6 C 67 % 1009,4 hPa 0,0 l/m 0,8 km/h (0 Bft) NW 309 0 min 0,000 mm 84 W/m 16,8 C 23,3 C 4,8 km/h (1 Bft) 98 %
19.08.2016 18:50 23,0 C 23,0 C 23,3 C 70 % 1009,4 hPa 0,0 l/m 0,2 km/h (0 Bft) NW 324 0 min 0,000 mm 72 W/m 17,2 C 23,0 C 6,4 km/h (2 Bft) 97 %
19.08.2016 19:00 22,8 C 22,8 C 23,0 C 71 % 1009,4 hPa 0,0 l/m 1,2 km/h (1 Bft) NW 320 0 min 0,077 mm 98 W/m 17,3 C 22,8 C 8,0 km/h (2 Bft) 98 %
19.08.2016 19:10 22,7 C 22,7 C 22,8 C 70 % 1009,5 hPa 0,0 l/m 2,9 km/h (1 Bft) NW 313 0 min 0,000 mm 69 W/m 16,9 C 22,7 C 9,7 km/h (2 Bft) 97 %
19.08.2016 19:20 22,7 C 22,7 C 22,8 C 70 % 1009,6 hPa 0,0 l/m 4,5 km/h (1 Bft) NW 319 0 min 0,000 mm 49 W/m 16,9 C 22,7 C 8,0 km/h (2 Bft) 97 %
19.08.2016 19:30 22,6 C 22,6 C 22,7 C 71 % 1009,7 hPa 0,0 l/m 0,3 km/h (0 Bft) NW 315 0 min 0,000 mm 39 W/m 17,1 C 22,6 C 4,8 km/h (1 Bft) 98 %
19.08.2016 19:40 22,3 C 22,3 C 22,6 C 72 % 1009,8 hPa 0,0 l/m 0,0 km/h (0 Bft) NW 315 0 min 0,000 mm 33 W/m 17,0 C 22,3 C 0,0 km/h (0 Bft) 98 %
19.08.2016 19:50 21,9 C 21,9 C 22,3 C 74 % 1009,8 hPa 0,0 l/m 0,0 km/h (0 Bft) NW 315 0 min 0,000 mm 35 W/m 17,0 C 21,9 C 1,6 km/h (1 Bft) 98 %
19.08.2016 20:00 21,6 C 21,6 C 21,9 C 75 % 1009,7 hPa 0,0 l/m 0,0 km/h (0 Bft) NW 315 0 min 0,050 mm 21 W/m 17,0 C 21,6 C 0,0 km/h (0 Bft) 99 %
19.08.2016 20:10 21,3 C 21,3 C 21,6 C 76 % 1009,8 hPa 0,0 l/m 0,0 km/h (0 Bft) NW 315 0 min 0,000 mm 9 W/m 16,9 C 21,3 C 1,6 km/h (1 Bft) 98 %
19.08.2016 20:20 21,0 C 21,0 C 21,3 C 77 % 1009,7 hPa 0,0 l/m 0,0 km/h (0 Bft) NW 315 0 min 0,000 mm 0 W/m 16,8 C 21,0 C 0,0 km/h (0 Bft) 100 %
19.08.2016 20:30 20,7 C 20,7 C 21,0 C 78 % 1009,9 hPa 0,0 l/m 0,0 km/h (0 Bft) NW 315 0 min 0,000 mm 0 W/m 16,7 C 20,7 C 0,0 km/h (0 Bft) 100 %
19.08.2016 20:40 20,5 C 20,5 C 20,7 C 78 % 1010,0 hPa 0,0 l/m 0,0 km/h (0 Bft) NW 315 0 min 0,000 mm 0 W/m 16,5 C 20,5 C 0,0 km/h (0 Bft) 100 %
19.08.2016 20:50 20,4 C 20,4 C 20,5 C 79 % 1010,0 hPa 0,0 l/m 0,0 km/h (0 Bft) NW 315 0 min 0,000 mm 0 W/m 16,6 C 20,4 C 0,0 km/h (0 Bft) 100 %
19.08.2016 21:00 20,2 C 20,2 C 20,4 C 79 % 1010,2 hPa 0,0 l/m 0,0 km/h (0 Bft) NW 315 0 min 0,000 mm 0 W/m 16,4 C 20,2 C 0,0 km/h (0 Bft) 99 %
19.08.2016 21:10 20,1 C 20,1 C 20,2 C 79 % 1010,3 hPa 0,0 l/m 0,0 km/h (0 Bft) N 0 0 min 0,000 mm 0 W/m 16,3 C 20,1 C 0,0 km/h (0 Bft) 100 %
19.08.2016 21:20 20,0 C 20,0 C 20,1 C 80 % 1010,4 hPa 0,0 l/m 0,0 km/h (0 Bft) N 0 0 min 0,000 mm 0 W/m 16,4 C 20,0 C 0,0 km/h (0 Bft) 100 %
19.08.2016 21:30 19,9 C 19,9 C 20,0 C 81 % 1010,5 hPa 0,0 l/m 0,0 km/h (0 Bft) N 0 0 min 0,000 mm 0 W/m 16,5 C 19,9 C 0,0 km/h (0 Bft) 100 %
19.08.2016 21:40 19,8 C 19,8 C 19,9 C 81 % 1010,6 hPa 0,0 l/m 0,0 km/h (0 Bft) N 0 0 min 0,000 mm 0 W/m 16,4 C 19,8 C 0,0 km/h (0 Bft) 100 %
19.08.2016 21:50 19,7 C 19,7 C 19,8 C 81 % 1010,7 hPa 0,0 l/m 0,0 km/h (0 Bft) N 0 0 min 0,000 mm 0 W/m 16,3 C 19,7 C 0,0 km/h (0 Bft) 100 %
19.08.2016 22:00 19,7 C 19,7 C 19,8 C 82 % 1010,8 hPa 0,0 l/m 0,0 km/h (0 Bft) N 0 0 min 0,025 mm 0 W/m 16,5 C 19,7 C 0,0 km/h (0 Bft) 100 %
19.08.2016 22:10 19,7 C 19,7 C 19,7 C 83 % 1010,8 hPa 0,0 l/m 0,0 km/h (0 Bft) N 0 0 min 0,000 mm 0 W/m 16,7 C 19,7 C 0,0 km/h (0 Bft) 100 %
19.08.2016 22:20 19,6 C 19,6 C 19,7 C 83 % 1010,7 hPa 0,0 l/m 0,0 km/h (0 Bft) N 0 0 min 0,000 mm 0 W/m 16,6 C 19,6 C 0,0 km/h (0 Bft) 100 %
19.08.2016 22:30 19,4 C 19,4 C 19,6 C 83 % 1010,7 hPa 0,0 l/m 0,0 km/h (0 Bft) N 0 0 min 0,000 mm 0 W/m 16,4 C 19,4 C 0,0 km/h (0 Bft) 100 %
19.08.2016 22:40 19,4 C 19,3 C 19,5 C 83 % 1010,6 hPa 0,0 l/m 0,0 km/h (0 Bft) N 0 0 min 0,000 mm 0 W/m 16,4 C 19,4 C 0,0 km/h (0 Bft) 100 %
19.08.2016 22:50 19,3 C 19,3 C 19,3 C 84 % 1010,7 hPa 0,0 l/m 0,0 km/h (0 Bft) N 0 0 min 0,000 mm 0 W/m 16,5 C 19,3 C 0,0 km/h (0 Bft) 100 %
19.08.2016 23:00 19,1 C 19,1 C 19,3 C 84 % 1010,7 hPa 0,0 l/m 0,0 km/h (0 Bft) N 0 0 min 0,025 mm 0 W/m 16,3 C 19,1 C 0,0 km/h (0 Bft) 100 %
19.08.2016 23:10 18,9 C 18,9 C 19,1 C 83 % 1010,9 hPa 0,0 l/m 0,0 km/h (0 Bft) N 0 0 min 0,000 mm 0 W/m 15,9 C 18,9 C 0,0 km/h (0 Bft) 100 %
19.08.2016 23:20 18,8 C 18,8 C 18,9 C 83 % 1011,0 hPa 0,0 l/m 0,0 km/h (0 Bft) N 0 0 min 0,000 mm 0 W/m 15,8 C 18,8 C 0,0 km/h (0 Bft) 100 %
19.08.2016 23:30 18,8 C 18,8 C 18,8 C 83 % 1011,1 hPa 0,0 l/m 0,0 km/h (0 Bft) NW 315 0 min 0,000 mm 0 W/m 15,8 C 18,8 C 1,6 km/h (1 Bft) 100 %
19.08.2016 23:40 18,8 C 18,8 C 18,8 C 81 % 1011,2 hPa 0,0 l/m 0,0 km/h (0 Bft) NW 315 0 min 0,000 mm 0 W/m 15,5 C 18,8 C 3,2 km/h (1 Bft) 100 %
19.08.2016 23:50 18,9 C 18,8 C 18,9 C 80 % 1011,2 hPa 0,0 l/m 0,0 km/h (0 Bft) W-NW 292 0 min 0,000 mm 0 W/m 15,4 C 18,9 C 3,2 km/h (1 Bft) 100 %
_ Min-Zeit 04:50 04:50 05:00 15:20 18:00 - 00:00 - - - - - 04:50 04:50 00:00 00:40
Minimum _ 15,1 C 15,1 C 15,1 C 57 % 1009,2 hPa - 0,0 km/h (0 Bft) - - - - - 13,5 C 15,1 C 0,0 km/h (0 Bft) 89 %
_ Max-Zeit 15:20 15:30 15:20 06:10 23:40 00:00 14:00 - - 09:40 13:00 14:10 11:50 15:20 14:00 00:00
Maximum _ 24,9 C 24,8 C 24,9 C 91 % 1011,2 hPa 0,0 l/m 8,0 km/h
S-SO (2 Bft)
- - 10 min 0,381 mm 939 W/m 17,9 C 24,9 C 20,9 km/h
S-SW (4 Bft)
100 %
Durchschnitt _ 19,6 C 19,5 C 19,7 C 79 % 1010,1 hPa #0,0 l/m 0,9 km/h (0 Bft) S-SW - #8:00 h #2,234 mm 318 W/m 15,7 C 19,6 C 4,3 km/h (1 Bft) 99 %
PRIVATE WETTERSTATION BILLIGHEIM-ALLFELD - www.neckar-odenwald-wetter.de - Holger Sonntag